Time;durP1;ratioP1;P1;durP2;ratioP2;P2;SDS_P1;SDS_P2;PMS_P1;PMS_P2;Temp;Humidity;BMP_temperature;BMP_pressure;BME280_temperature;BME280_humidity;BME280_pressure;Samples;Min_cycle;Max_cycle;Signal;HPM_P1;HPM_P2
2023/01/22 00:01:23;;;;;;;4.90;2.97;;;;;;;14.40;53.05;100322.88;5072129;28;20142;-54
2023/01/22 00:03:52;;;;;;;4.72;2.80;;;;;;;14.33;53.13;100325.16;5072095;28;20041;-52
2023/01/22 00:06:22;;;;;;;4.80;2.80;;;;;;;14.31;52.99;100330.63;5072068;28;20040;-56
2023/01/22 00:08:50;;;;;;;4.82;2.75;;;;;;;14.30;53.20;100328.06;5071986;28;20051;-54
2023/01/22 00:11:20;;;;;;;3.50;2.35;;;;;;;14.29;53.05;100337.09;5071574;28;20098;-54
2023/01/22 00:13:48;;;;;;;4.47;2.63;;;;;;;14.24;53.14;100345.47;5071948;28;20397;-54
2023/01/22 00:16:17;;;;;;;4.47;2.50;;;;;;;14.22;53.00;100347.41;5071910;28;20079;-54
2023/01/22 00:18:47;;;;;;;4.78;2.90;;;;;;;14.20;53.04;100357.41;5071766;28;20075;-56
2023/01/22 00:21:15;;;;;;;4.28;2.42;;;;;;;14.17;53.18;100349.56;5071854;28;20066;-53
2023/01/22 00:23:43;;;;;;;4.55;2.90;;;;;;;14.13;53.18;100350.78;5071875;28;20076;-56
2023/01/22 00:26:14;;;;;;;4.03;2.65;;;;;;;14.13;53.20;100352.59;5071868;28;20520;-53
2023/01/22 00:28:44;;;;;;;4.50;2.78;;;;;;;14.09;53.16;100348.41;5071540;28;20056;-56
2023/01/22 00:31:13;;;;;;;4.40;2.80;;;;;;;14.06;53.27;100341.44;5071730;28;20040;-53
2023/01/22 00:33:42;;;;;;;3.67;2.33;;;;;;;14.04;53.29;100348.75;5071690;28;20055;-54
2023/01/22 00:36:14;;;;;;;4.68;2.70;;;;;;;13.96;53.19;100346.63;5071683;28;20052;-54
2023/01/22 00:38:43;;;;;;;4.10;2.60;;;;;;;13.98;53.10;100360.78;5071790;28;20048;-52
2023/01/22 00:41:12;;;;;;;4.22;2.67;;;;;;;13.97;53.39;100359.06;5071627;28;20127;-54
2023/01/22 00:43:40;;;;;;;4.47;2.78;;;;;;;13.94;53.15;100355.75;5071628;28;20079;-54
2023/01/22 00:46:11;;;;;;;4.47;2.67;;;;;;;13.92;53.24;100360.38;5071464;28;20059;-53
2023/01/22 00:48:39;;;;;;;4.35;2.55;;;;;;;13.90;53.27;100356.97;5071690;28;20135;-54
2023/01/22 00:51:08;;;;;;;4.05;2.65;;;;;;;13.89;53.34;100360.59;5071657;28;20105;-53
2023/01/22 00:53:40;;;;;;;4.95;2.65;;;;;;;13.86;53.39;100360.81;5071540;28;20045;-52
2023/01/22 00:56:08;;;;;;;4.60;2.63;;;;;;;13.83;53.47;100366.41;5071500;28;20052;-52
2023/01/22 00:58:36;;;;;;;4.75;2.42;;;;;;;13.82;53.32;100365.56;5071325;28;20576;-55
2023/01/22 01:01:06;;;;;;;4.65;2.97;;;;;;;13.79;53.43;100360.38;5071443;28;20051;-52
2023/01/22 01:03:37;;;;;;;3.92;2.40;;;;;;;13.77;53.43;100361.47;5071501;28;20466;-54
2023/01/22 01:06:07;;;;;;;4.47;2.70;;;;;;;13.75;53.38;100375.00;5071425;28;20131;-51
2023/01/22 01:08:39;;;;;;;4.03;2.60;;;;;;;13.72;53.43;100370.72;5071345;28;20092;-53
2023/01/22 01:11:11;;;;;;;4.00;2.63;;;;;;;13.70;53.42;100372.66;5071342;28;20044;-53
2023/01/22 01:13:41;;;;;;;4.23;2.53;;;;;;;13.67;53.57;100378.22;5071542;28;20072;-53
2023/01/22 01:16:13;;;;;;;4.03;2.35;;;;;;;13.63;53.47;100370.50;5071340;28;20055;-55
2023/01/22 01:18:41;;;;;;;4.43;2.50;;;;;;;13.63;53.40;100360.66;5071294;28;20048;-53
2023/01/22 01:21:10;;;;;;;4.18;2.65;;;;;;;13.63;53.44;100374.03;5071275;28;20052;-55
2023/01/22 01:23:41;;;;;;;4.32;2.70;;;;;;;13.60;53.63;100374.25;5074790;28;20082;-55
2023/01/22 01:26:12;;;;;;;4.00;2.53;;;;;;;13.58;53.42;100376.19;5075023;28;20044;-53
2023/01/22 01:28:42;;;;;;;3.75;2.30;;;;;;;13.57;53.60;100377.16;5074609;28;20490;-52
2023/01/22 01:31:12;;;;;;;3.50;2.25;;;;;;;13.55;53.47;100375.56;5074948;28;20045;-54
2023/01/22 01:33:41;;;;;;;3.92;2.30;;;;;;;13.52;53.50;100376.63;5074896;28;20048;-54
2023/01/22 01:36:11;;;;;;;4.38;2.53;;;;;;;13.50;53.43;100378.53;5074745;28;20048;-54
2023/01/22 01:38:43;;;;;;;4.57;2.22;;;;;;;13.48;53.62;100376.94;5074706;28;20036;-55
2023/01/22 01:41:13;;;;;;;3.42;2.40;;;;;;;13.45;53.64;100375.34;5074775;28;20052;-53
2023/01/22 01:43:42;;;;;;;4.95;2.67;;;;;;;13.46;53.58;100379.72;5074702;28;20045;-55
2023/01/22 01:46:19;;;;;;;3.65;2.38;;;;;;;13.42;53.71;100395.19;5074625;28;20178;-55
2023/01/22 01:48:51;;;;;;;4.40;2.70;;;;;;;13.41;53.44;100392.56;5074443;28;20044;-54
2023/01/22 01:51:28;;;;;;;4.10;2.50;;;;;;;13.39;53.76;100383.78;5074569;28;20087;-54
2023/01/22 01:53:59;;;;;;;3.67;2.30;;;;;;;13.39;53.44;100389.16;5074575;28;20048;-54
2023/01/22 01:56:30;;;;;;;3.80;2.30;;;;;;;13.36;53.64;100392.06;5074529;28;20044;-53
2023/01/22 01:59:05;;;;;;;4.13;2.30;;;;;;;13.35;53.62;100382.31;5074352;28;20056;-55
2023/01/22 02:01:33;;;;;;;3.90;2.25;;;;;;;13.30;53.69;100374.56;5074307;28;20068;-55
2023/01/22 02:04:02;;;;;;;4.32;2.53;;;;;;;13.30;53.55;100384.44;5074398;28;20051;-55
2023/01/22 02:06:30;;;;;;;4.00;2.58;;;;;;;13.29;53.68;100380.03;5074319;28;20486;-56
2023/01/22 02:09:00;;;;;;;4.03;2.40;;;;;;;13.27;53.66;100368.59;5074259;28;20066;-56
2023/01/22 02:11:30;;;;;;;4.10;2.55;;;;;;;13.25;53.62;100368.69;5074208;28;20045;-53
2023/01/22 02:14:02;;;;;;;3.50;2.20;;;;;;;13.17;53.67;100366.50;5074083;28;20048;-55
2023/01/22 02:16:30;;;;;;;4.35;2.50;;;;;;;13.21;53.73;100369.84;5074268;28;20090;-56
2023/01/22 02:19:00;;;;;;;4.22;2.38;;;;;;;13.18;53.63;100362.88;5074038;28;20041;-54
2023/01/22 02:21:35;;;;;;;4.55;2.70;;;;;;;13.18;53.72;100368.22;5074030;28;20098;-55
2023/01/22 02:24:05;;;;;;;3.85;2.33;;;;;;;13.17;53.64;100363.84;5073923;28;20046;-56
2023/01/22 02:26:33;;;;;;;4.20;2.60;;;;;;;13.15;53.64;100365.75;5073867;28;20123;-54
2023/01/22 02:29:02;;;;;;;4.03;2.45;;;;;;;13.13;53.58;100366.84;5073571;28;20061;-55
2023/01/22 02:31:30;;;;;;;3.75;2.38;;;;;;;13.12;53.62;100371.34;5072130;28;20059;-56
2023/01/22 02:34:00;;;;;;;4.03;2.33;;;;;;;13.11;53.68;100366.91;5073476;28;20098;-57
2023/01/22 02:36:31;;;;;;;4.28;2.40;;;;;;;13.08;53.73;100359.09;5074021;28;20424;-54
2023/01/22 02:38:59;;;;;;;3.58;2.15;;;;;;;13.07;53.69;100357.41;5073573;28;20559;-53
2023/01/22 02:41:28;;;;;;;3.70;2.10;;;;;;;13.05;53.49;100355.78;5073691;28;20055;-55
2023/01/22 02:43:56;;;;;;;3.42;1.95;;;;;;;13.04;53.80;100354.94;5073617;28;20044;-54
2023/01/22 02:46:24;;;;;;;4.20;2.50;;;;;;;13.03;53.74;100355.06;5073528;28;20048;-55
2023/01/22 02:48:53;;;;;;;3.45;2.17;;;;;;;13.00;53.86;100356.09;5073424;28;20044;-52
2023/01/22 02:51:21;;;;;;;4.07;2.25;;;;;;;12.99;53.62;100354.38;5073211;28;20076;-55
2023/01/22 02:53:50;;;;;;;3.33;2.20;;;;;;;12.97;53.75;100352.78;5073384;28;20131;-53
2023/01/22 02:56:19;;;;;;;3.90;2.20;;;;;;;12.95;53.64;100346.69;5073246;28;20055;-52
2023/01/22 02:58:47;;;;;;;3.47;2.00;;;;;;;12.92;53.78;100342.38;5073284;28;20040;-52
2023/01/22 03:01:20;;;;;;;3.30;2.10;;;;;;;12.93;53.78;100352.09;5073230;28;20053;-53
2023/01/22 03:03:50;;;;;;;;;;;;;;;12.93;53.55;100345.91;5073615;28;20535;-56
2023/01/22 03:06:20;;;;;;;3.70;2.08;;;;;;;12.94;53.77;100351.19;5073054;28;19963;-55
2023/01/22 03:08:52;;;;;;;3.67;2.15;;;;;;;12.97;53.84;100345.59;5073099;28;20234;-54
2023/01/22 03:11:20;;;;;;;3.45;2.00;;;;;;;13.03;54.29;100334.47;5072912;28;20048;-54
2023/01/22 03:22:07;;;;;;;3.95;2.10;;;;;;;13.41;54.48;100328.28;5072786;28;20052;-54
2023/01/22 03:24:37;;;;;;;2.97;1.98;;;;;;;13.52;54.47;100320.34;5072725;28;20089;-55
2023/01/22 03:27:05;;;;;;;3.00;1.92;;;;;;;13.63;54.20;100328.47;5072407;28;20094;-55
2023/01/22 03:29:37;;;;;;;3.50;1.88;;;;;;;13.74;54.18;100335.75;5072626;28;20044;-55
2023/01/22 03:32:06;;;;;;;3.30;2.08;;;;;;;13.79;54.24;100327.34;5072745;28;20052;-53
2023/01/22 03:34:34;;;;;;;3.13;1.95;;;;;;;13.83;54.12;100323.50;5072609;28;20055;-55
2023/01/22 03:37:03;;;;;;;2.92;1.77;;;;;;;13.85;54.07;100322.41;5072459;28;20485;-55
2023/01/22 03:39:32;;;;;;;3.35;2.00;;;;;;;13.89;53.99;100323.03;5072455;28;20485;-53
2023/01/22 03:42:01;;;;;;;3.22;1.70;;;;;;;13.91;53.89;100322.00;5072540;28;20076;-55
2023/01/22 03:44:29;;;;;;;3.15;1.95;;;;;;;13.93;53.77;100325.41;5071828;28;20101;-54
2023/01/22 03:46:57;;;;;;;2.88;1.88;;;;;;;13.91;53.90;100321.13;5072430;28;20083;-54
2023/01/22 03:49:25;;;;;;;2.63;1.70;;;;;;;13.91;53.91;100315.78;5072310;28;20048;-53
2023/01/22 03:51:54;;;;;;;2.88;1.67;;;;;;;13.91;53.73;100318.44;5072095;28;20493;-55
2023/01/22 03:54:22;;;;;;;3.50;1.80;;;;;;;13.89;53.81;100323.91;5072175;28;20044;-54
2023/01/22 03:56:50;;;;;;;3.72;2.10;;;;;;;13.88;53.64;100322.19;5072184;28;20045;-53
2023/01/22 03:59:20;;;;;;;4.38;1.75;;;;;;;13.85;53.68;100326.94;5072139;28;20436;-54
2023/01/22 04:01:49;;;;;;;3.22;2.13;;;;;;;13.86;53.78;100328.63;5072070;28;20040;-55
2023/01/22 04:04:17;;;;;;;2.95;1.75;;;;;;;13.83;53.79;100324.38;5072068;28;20049;-54
2023/01/22 04:06:45;;;;;;;3.28;1.95;;;;;;;13.82;53.83;100328.03;5072087;28;20685;-54
2023/01/22 04:09:14;;;;;;;3.10;1.88;;;;;;;13.80;53.75;100326.38;5071962;28;20044;-55
2023/01/22 04:11:43;;;;;;;3.42;1.85;;;;;;;13.78;53.74;100320.28;5071856;28;20045;-54
2023/01/22 04:14:11;;;;;;;3.03;1.77;;;;;;;13.74;53.68;100320.53;5071982;28;20123;-55
2023/01/22 04:16:40;;;;;;;2.92;1.73;;;;;;;13.73;53.57;100324.16;5071971;28;20127;-55
2023/01/22 04:19:10;;;;;;;3.10;1.95;;;;;;;13.70;53.58;100324.41;5071832;28;20052;-55
2023/01/22 04:21:38;;;;;;;3.05;1.80;;;;;;;13.68;53.68;100323.63;5071900;28;20500;-55
2023/01/22 04:24:06;;;;;;;4.20;2.10;;;;;;;13.66;53.59;100322.03;5071866;28;20444;-55
2023/01/22 04:26:34;;;;;;;3.15;1.85;;;;;;;13.64;53.62;100327.50;5071797;28;20067;-55
2023/01/22 04:29:02;;;;;;;2.75;1.83;;;;;;;13.62;53.44;100325.91;5071634;28;20413;-54
2023/01/22 04:31:30;;;;;;;2.45;1.70;;;;;;;13.57;53.54;100328.06;5071729;28;20048;-54
2023/01/22 04:34:00;;;;;;;3.60;1.80;;;;;;;13.56;53.45;100327.19;5071749;28;20041;-54
2023/01/22 04:36:28;;;;;;;2.75;1.67;;;;;;;13.53;53.54;100327.44;5071917;28;20072;-53
2023/01/22 04:38:56;;;;;;;3.00;1.63;;;;;;;13.52;53.72;100320.34;5071863;28;20052;-52
2023/01/22 04:41:24;;;;;;;2.63;1.60;;;;;;;13.54;53.74;100321.09;5071703;28;20075;-53
2023/01/22 04:43:53;;;;;;;3.40;2.17;;;;;;;13.60;53.99;100323.31;5071765;28;20448;-54
2023/01/22 04:46:21;;;;;;;2.38;1.60;;;;;;;13.68;54.02;100329.00;5071490;28;20053;-55
2023/01/22 04:48:49;;;;;;;2.78;1.80;;;;;;;13.76;54.12;100320.41;5071815;28;20052;-54
2023/01/22 04:51:19;;;;;;;3.30;1.90;;;;;;;13.82;54.06;100314.63;5071631;28;20053;-54
2023/01/22 04:53:47;;;;;;;2.67;1.60;;;;;;;13.93;54.02;100317.38;5071688;28;20151;-54
2023/01/22 04:56:17;;;;;;;2.83;1.70;;;;;;;14.02;53.85;100323.88;5073037;28;20053;-55
2023/01/22 04:58:45;;;;;;;3.00;1.67;;;;;;;14.11;53.80;100320.53;5075645;28;20054;-53
2023/01/22 05:01:13;;;;;;;2.70;1.50;;;;;;;14.18;53.84;100319.06;5075971;28;20052;-53
2023/01/22 05:03:41;;;;;;;2.15;1.50;;;;;;;14.28;53.69;100319.25;5075436;28;20056;-55
2023/01/22 05:06:09;;;;;;;2.63;1.65;;;;;;;14.39;53.70;100334.59;5075316;28;20434;-54
2023/01/22 05:08:40;;;;;;;2.17;1.60;;;;;;;14.47;53.47;100337.56;5075377;28;20118;-53
2023/01/22 05:11:08;;;;;;;3.20;1.70;;;;;;;14.55;53.57;100340.53;5075281;28;20439;-54
2023/01/22 05:13:36;;;;;;;3.35;1.90;;;;;;;14.60;53.47;100343.72;5075173;28;20109;-53
2023/01/22 05:16:04;;;;;;;2.65;1.63;;;;;;;14.70;53.36;100358.16;5075228;28;20127;-55
2023/01/22 05:18:33;;;;;;;2.65;1.60;;;;;;;14.78;53.35;100353.09;5075165;28;20051;-53
2023/01/22 05:21:01;;;;;;;2.85;1.58;;;;;;;14.88;53.18;100362.16;5075168;28;20074;-54
2023/01/22 05:23:29;;;;;;;3.10;1.48;;;;;;;14.94;53.15;100358.13;5075109;28;20075;-55
2023/01/22 05:25:59;;;;;;;3.00;1.67;;;;;;;15.07;53.05;100371.47;5075084;28;20044;-54
2023/01/22 05:28:27;;;;;;;2.95;1.70;;;;;;;15.17;53.11;100365.28;5074803;28;20052;-53
2023/01/22 05:30:55;;;;;;;3.85;1.60;;;;;;;15.25;52.88;100369.19;5074926;28;20040;-56
2023/01/22 05:33:23;;;;;;;2.72;1.60;;;;;;;15.34;52.88;100382.75;5075006;28;20412;-52
2023/01/22 05:35:56;;;;;;;2.22;1.38;;;;;;;15.40;52.77;100379.59;5074854;28;20079;-55
2023/01/22 05:38:24;;;;;;;2.17;1.35;;;;;;;15.48;52.65;100384.38;5074789;28;20044;-54
2023/01/22 05:40:52;;;;;;;2.58;1.60;;;;;;;15.52;52.56;100388.53;5074621;28;20051;-54
2023/01/22 05:43:22;;;;;;;2.72;1.60;;;;;;;15.56;52.57;100397.22;5074629;28;20083;-53
2023/01/22 05:45:50;;;;;;;2.40;1.70;;;;;;;15.55;52.53;100398.22;5074603;28;20049;-54
2023/01/22 05:48:18;;;;;;;2.75;1.70;;;;;;;15.54;52.66;100402.72;5074562;28;20497;-55
2023/01/22 05:50:47;;;;;;;2.83;1.80;;;;;;;15.53;52.55;100405.50;5074548;28;20056;-52
2023/01/22 05:53:15;;;;;;;2.10;1.33;;;;;;;15.52;52.54;100409.19;5074474;28;20396;-55
2023/01/22 05:55:43;;;;;;;3.13;1.80;;;;;;;15.50;52.59;100412.00;5074526;28;20446;-56
2023/01/22 05:58:11;;;;;;;3.13;1.67;;;;;;;15.49;52.58;100414.81;5074542;28;20135;-53
2023/01/22 06:00:41;;;;;;;2.08;1.40;;;;;;;15.45;52.65;100422.28;5074354;28;20045;-53
2023/01/22 06:03:09;;;;;;;2.90;1.60;;;;;;;15.42;52.63;100431.41;5074373;28;20102;-55
2023/01/22 06:05:37;;;;;;;2.88;1.50;;;;;;;15.37;52.57;100417.47;5074312;28;20055;-53
2023/01/22 06:08:05;;;;;;;2.40;1.52;;;;;;;15.35;52.61;100424.81;5073435;28;20044;-52
2023/01/22 06:10:34;;;;;;;2.72;1.70;;;;;;;15.33;52.66;100426.72;5074193;28;20040;-54
2023/01/22 06:13:02;;;;;;;2.35;1.60;;;;;;;15.30;52.52;100431.50;5074187;28;20040;-53
2023/01/22 06:15:30;;;;;;;2.90;1.83;;;;;;;15.22;52.67;100425.84;5074145;28;20144;-54
2023/01/22 06:18:01;;;;;;;2.25;1.42;;;;;;;15.20;52.63;100442.09;5074097;28;20045;-54
2023/01/22 06:20:29;;;;;;;2.58;1.50;;;;;;;15.17;52.56;100450.41;5073993;28;20050;-52
2023/01/22 06:22:57;;;;;;;2.28;1.42;;;;;;;15.14;52.52;100447.94;5073994;28;20074;-55
2023/01/22 06:25:25;;;;;;;2.50;1.65;;;;;;;15.09;52.58;100444.75;5073973;28;20406;-53
2023/01/22 06:27:54;;;;;;;3.20;1.70;;;;;;;15.04;52.53;100450.44;5073715;28;20064;-54
2023/01/22 06:30:22;;;;;;;2.78;1.58;;;;;;;15.01;52.57;100463.28;5073863;28;20119;-54
2023/01/22 06:32:52;;;;;;;2.90;1.67;;;;;;;14.97;52.60;100473.41;5073776;28;20044;-54
2023/01/22 06:35:21;;;;;;;2.42;1.50;;;;;;;14.93;52.62;100471.03;5073793;28;20508;-56
2023/01/22 06:37:50;;;;;;;2.92;1.60;;;;;;;14.87;52.68;100469.69;5073829;28;20053;-54
2023/01/22 06:40:18;;;;;;;2.88;1.80;;;;;;;14.83;52.56;100477.09;5073601;28;20075;-55
2023/01/22 06:42:47;;;;;;;2.20;1.50;;;;;;;14.75;52.48;100463.38;5073605;28;20443;-55
2023/01/22 06:45:15;;;;;;;3.13;1.75;;;;;;;14.74;52.56;100475.09;5073576;28;20140;-55
2023/01/22 06:47:43;;;;;;;3.10;1.73;;;;;;;14.71;52.59;100480.69;5073376;28;20052;-54
2023/01/22 06:50:13;;;;;;;2.47;1.60;;;;;;;14.67;52.53;100483.69;5073452;28;20056;-55
2023/01/22 06:52:42;;;;;;;2.40;1.58;;;;;;;14.63;52.53;100477.72;5073364;28;20047;-54
2023/01/22 06:55:10;;;;;;;2.60;1.60;;;;;;;14.56;52.61;100471.06;5073301;28;20102;-55
2023/01/22 06:57:39;;;;;;;2.92;1.75;;;;;;;14.54;52.75;100479.25;5073202;28;20040;-54
2023/01/22 07:00:09;;;;;;;2.83;1.60;;;;;;;14.49;52.77;100481.41;5073187;28;20052;-53
2023/01/22 07:02:38;;;;;;;2.75;1.50;;;;;;;14.47;52.55;100485.16;5073273;28;20072;-54
2023/01/22 07:05:06;;;;;;;2.45;1.70;;;;;;;14.43;52.63;100489.03;5073300;28;20040;-54
2023/01/22 07:07:34;;;;;;;2.50;1.52;;;;;;;14.40;52.54;100489.25;5073063;28;20048;-54
2023/01/22 07:10:04;;;;;;;3.13;1.70;;;;;;;14.42;52.71;100498.03;5073116;28;20413;-55
2023/01/22 07:12:35;;;;;;;2.55;1.70;;;;;;;14.45;52.77;100506.75;5073029;28;20063;-54
2023/01/22 07:15:05;;;;;;;3.00;1.70;;;;;;;14.50;52.85;100503.75;5073055;28;20486;-55
2023/01/22 07:17:35;;;;;;;2.63;1.55;;;;;;;14.58;53.02;100506.75;5073078;28;20102;-55
2023/01/22 07:20:09;;;;;;;2.67;1.70;;;;;;;14.65;52.93;100505.31;5072078;28;20048;-54
2023/01/22 07:22:38;;;;;;;2.70;1.60;;;;;;;14.73;52.92;100518.16;5072777;28;20040;-54
2023/01/22 07:25:08;;;;;;;2.30;1.50;;;;;;;14.81;53.12;100521.16;5072678;28;20139;-54
2023/01/22 07:27:37;;;;;;;2.55;1.58;;;;;;;14.91;52.82;100524.03;5072491;28;20450;-54
2023/01/22 07:30:06;;;;;;;2.08;1.30;;;;;;;15.00;52.72;100520.66;5072650;28;20051;-54
2023/01/22 07:32:35;;;;;;;2.45;1.42;;;;;;;15.05;52.76;100526.53;5072670;28;20135;-55
2023/01/22 07:35:04;;;;;;;3.45;1.98;;;;;;;15.15;52.62;100535.63;5072705;28;20076;-54
2023/01/22 07:37:32;;;;;;;2.17;1.60;;;;;;;15.21;52.58;100537.00;5072523;28;20041;-56
2023/01/22 07:40:01;;;;;;;2.95;1.73;;;;;;;15.30;52.56;100537.16;5072503;28;20049;-54
2023/01/22 07:42:30;;;;;;;3.35;1.92;;;;;;;15.39;52.53;100546.38;5072441;28;20067;-55
2023/01/22 07:44:59;;;;;;;3.25;1.80;;;;;;;15.45;52.36;100548.59;5072384;28;20040;-55
2023/01/22 07:47:27;;;;;;;2.33;1.50;;;;;;;15.50;52.47;100559.00;5072262;28;20048;-55
2023/01/22 07:49:57;;;;;;;3.33;1.80;;;;;;;15.53;52.34;100548.00;5072379;28;20489;-52
2023/01/22 07:52:26;;;;;;;2.95;1.73;;;;;;;15.54;52.34;100549.72;5072098;28;20139;-54
2023/01/22 07:54:54;;;;;;;3.08;1.80;;;;;;;15.53;52.27;100556.91;5072265;28;20052;-52
2023/01/22 07:57:22;;;;;;;2.85;1.88;;;;;;;15.51;52.25;100552.63;5072075;28;20106;-52
2023/01/22 07:59:53;;;;;;;3.47;1.98;;;;;;;15.51;52.34;100560.72;5072098;28;20516;-52
2023/01/22 08:02:21;;;;;;;3.13;2.05;;;;;;;15.50;52.34;100564.38;5072141;28;20044;-53
2023/01/22 08:04:50;;;;;;;3.30;1.70;;;;;;;15.49;52.25;100565.34;5072087;28;20048;-53
2023/01/22 08:07:18;;;;;;;2.53;1.65;;;;;;;15.43;52.37;100559.44;5071891;28;20110;-54
2023/01/22 08:09:46;;;;;;;2.75;1.52;;;;;;;15.44;52.37;100563.88;5071977;28;20051;-54
2023/01/22 08:12:14;;;;;;;2.55;1.67;;;;;;;15.41;52.36;100569.47;5071897;28;20047;-55
2023/01/22 08:14:42;;;;;;;2.95;1.70;;;;;;;15.39;52.38;100559.81;5071995;28;20103;-53
2023/01/22 08:17:12;;;;;;;2.53;1.60;;;;;;;15.37;52.44;100580.56;5071920;28;20387;-52
2023/01/22 08:19:40;;;;;;;2.67;1.67;;;;;;;15.34;52.35;100586.16;5072340;28;20044;-52
2023/01/22 08:22:08;;;;;;;3.10;1.90;;;;;;;15.30;52.30;100590.91;5071905;28;20070;-55
2023/01/22 08:24:37;;;;;;;2.72;1.73;;;;;;;15.29;52.32;100599.09;5071853;28;20051;-55
2023/01/22 08:27:05;;;;;;;3.47;1.85;;;;;;;15.26;52.44;100602.88;5071766;28;20044;-54
2023/01/22 08:29:33;;;;;;;2.88;1.88;;;;;;;15.21;52.51;100588.06;5071897;28;20050;-53
2023/01/22 08:32:01;;;;;;;2.97;1.85;;;;;;;15.18;52.27;100589.16;5071466;28;20048;-52
2023/01/22 08:34:31;;;;;;;2.35;1.52;;;;;;;15.15;52.41;100600.09;5071618;28;20052;-52
2023/01/22 08:36:59;;;;;;;3.75;1.90;;;;;;;15.08;52.34;100601.53;5071775;28;20053;-53
2023/01/22 08:39:27;;;;;;;3.13;1.90;;;;;;;15.08;52.31;100609.59;5071726;28;20040;-51
2023/01/22 08:41:56;;;;;;;3.60;1.83;;;;;;;15.07;52.40;100618.63;5071646;28;20052;-52
2023/01/22 08:44:24;;;;;;;3.15;1.70;;;;;;;15.03;52.41;100617.13;5071599;28;20123;-53
2023/01/22 08:46:53;;;;;;;3.22;2.05;;;;;;;15.02;52.36;100623.47;5071566;28;20044;-51
2023/01/22 08:49:21;;;;;;;3.30;1.90;;;;;;;14.98;52.29;100627.38;5071627;28;20106;-54
2023/01/22 08:51:51;;;;;;;3.80;2.33;;;;;;;14.95;52.33;100641.00;5071582;28;20072;-52
2023/01/22 08:54:19;;;;;;;3.42;2.20;;;;;;;14.92;52.46;100633.16;5071429;28;20049;-54
2023/01/22 08:56:47;;;;;;;3.53;2.20;;;;;;;14.88;52.42;100633.41;5071535;28;20094;-52
2023/01/22 08:59:15;;;;;;;3.17;1.92;;;;;;;14.82;52.48;100639.19;5071462;28;20119;-51
2023/01/22 09:01:44;;;;;;;6.22;2.47;;;;;;;14.82;52.77;100651.78;5071486;28;20102;-53
2023/01/22 09:04:12;;;;;;;3.72;2.15;;;;;;;14.77;52.69;100644.06;5069851;28;20051;-54
2023/01/22 09:06:40;;;;;;;4.47;2.33;;;;;;;14.74;52.81;100654.13;5071047;28;20055;-52
2023/01/22 09:09:10;;;;;;;4.60;2.20;;;;;;;14.71;52.62;100649.84;5070635;28;20056;-53
2023/01/22 09:11:38;;;;;;;3.58;2.10;;;;;;;14.68;52.61;100655.44;5070991;28;20099;-54
2023/01/22 09:14:08;;;;;;;3.88;2.30;;;;;;;14.65;52.67;100644.91;5070736;28;20127;-52
2023/01/22 09:16:37;;;;;;;3.80;2.22;;;;;;;14.63;52.71;100654.91;5070965;28;20519;-55
2023/01/22 09:19:09;;;;;;;3.72;2.28;;;;;;;14.55;52.72;100660.81;5070425;28;20409;-52
2023/01/22 09:21:37;;;;;;;3.13;2.00;;;;;;;14.52;52.83;100660.16;5070772;28;20080;-53
2023/01/22 09:24:06;;;;;;;3.55;2.20;;;;;;;14.48;52.82;100658.69;5070629;28;20449;-54
2023/01/22 09:26:36;;;;;;;4.13;2.33;;;;;;;14.45;52.77;100657.03;5070728;28;20052;-53
2023/01/22 09:29:05;;;;;;;4.30;2.40;;;;;;;14.42;52.96;100657.25;5070295;28;20067;-52
2023/01/22 09:31:34;;;;;;;4.30;2.40;;;;;;;14.41;52.93;100660.03;5070705;28;20040;-53
2023/01/22 09:34:03;;;;;;;3.78;2.28;;;;;;;14.40;53.05;100661.00;5070577;28;20541;-52
2023/01/22 09:36:31;;;;;;;3.85;2.15;;;;;;;14.36;52.92;100664.84;5070862;28;20045;-52
2023/01/22 09:39:00;;;;;;;3.42;2.20;;;;;;;14.36;53.01;100675.59;5070399;28;20055;-53
2023/01/22 09:41:32;;;;;;;3.53;2.15;;;;;;;14.32;52.87;100667.75;5070633;28;20098;-52
2023/01/22 09:44:06;;;;;;;3.22;2.00;;;;;;;14.31;52.96;100681.28;5072975;28;20040;-53
2023/01/22 09:46:36;;;;;;;;;;;;;;;14.27;53.00;100683.28;5074773;28;20048;-54
2023/01/22 09:49:08;;;;;;;3.33;2.20;;;;;;;14.24;52.92;100680.84;5073898;28;20278;-54
2023/01/22 09:51:36;;;;;;;3.95;2.05;;;;;;;14.22;52.95;100676.53;5073942;28;20064;-54
2023/01/22 09:54:07;;;;;;;3.90;2.20;;;;;;;14.19;52.99;100672.25;5073965;28;20044;-53
2023/01/22 09:56:42;;;;;;;3.70;2.25;;;;;;;14.19;52.90;100680.31;5073937;28;20064;-54
2023/01/22 09:59:17;;;;;;;3.22;2.10;;;;;;;14.16;53.00;100679.63;5073806;28;20051;-53
2023/01/22 10:01:49;;;;;;;4.13;2.38;;;;;;;14.14;53.05;100682.44;5073843;28;20048;-52
2023/01/22 10:04:33;;;;;;;4.15;2.50;;;;;;;14.10;53.13;100683.63;5073574;28;20099;-55
2023/01/22 10:07:04;;;;;;;3.47;2.28;;;;;;;14.09;52.92;100681.00;5073873;28;20106;-52
2023/01/22 10:09:33;;;;;;;3.83;2.42;;;;;;;14.08;53.02;100681.97;5072956;28;20052;-54
2023/01/22 10:12:12;;;;;;;3.80;2.25;;;;;;;14.06;53.10;100676.72;5073755;28;20076;-54
2023/01/22 10:14:43;;;;;;;3.55;2.20;;;;;;;14.07;53.12;100686.47;5073457;28;20048;-53
2023/01/22 10:17:18;;;;;;;3.90;2.25;;;;;;;14.08;53.12;100680.16;5073766;28;20044;-54
2023/01/22 10:19:52;;;;;;;3.67;2.15;;;;;;;14.11;53.56;100674.59;5073382;28;20072;-55
2023/01/22 10:22:22;;;;;;;3.30;2.20;;;;;;;14.24;53.65;100691.56;5073548;28;20386;-54
2023/01/22 10:24:51;;;;;;;3.50;2.05;;;;;;;14.32;53.59;100691.91;5072405;28;20324;-52
2023/01/22 10:27:22;;;;;;;3.70;2.13;;;;;;;14.43;53.58;100696.53;5073022;28;20126;-52
2023/01/22 10:30:01;;;;;;;3.42;2.10;;;;;;;14.52;53.51;100701.28;5073570;28;20048;-54
2023/01/22 10:32:31;;;;;;;3.55;2.20;;;;;;;14.62;53.48;100704.19;5073332;28;20071;-52
2023/01/22 10:35:01;;;;;;;4.13;2.38;;;;;;;14.69;53.39;100699.25;5073271;28;20052;-55
2023/01/22 10:37:29;;;;;;;3.72;2.10;;;;;;;14.79;53.30;100703.88;5072973;28;20044;-53
2023/01/22 10:39:59;;;;;;;4.18;2.40;;;;;;;14.88;53.26;100700.53;5073046;28;20045;-55
2023/01/22 10:42:29;;;;;;;4.07;2.40;;;;;;;14.97;53.13;100703.53;5073148;28;20050;-53
2023/01/22 10:45:15;;;;;;;4.00;2.30;;;;;;;15.09;53.22;100711.56;5072997;28;20044;-53
2023/01/22 10:47:43;;;;;;;3.92;2.20;;;;;;;15.16;53.20;100701.25;5072574;28;20055;-52
2023/01/22 10:50:14;;;;;;;4.10;2.30;;;;;;;15.27;53.08;100711.22;5072850;28;20131;-51
2023/01/22 10:52:47;;;;;;;3.92;2.42;;;;;;;15.35;52.97;100707.03;5073143;28;20049;-51
2023/01/22 10:55:25;;;;;;;4.00;2.35;;;;;;;15.46;52.99;100707.09;5072743;28;20041;-51
2023/01/22 10:57:57;;;;;;;4.45;2.33;;;;;;;15.58;53.84;100707.16;5073265;28;20044;-51
2023/01/22 11:00:32;;;;;;;4.17;2.30;;;;;;;15.70;53.62;100692.81;5073241;28;20068;-53
2023/01/22 11:03:21;;;;;;;4.30;2.40;;;;;;;15.87;54.54;100695.13;5073252;28;20040;-51
2023/01/22 11:05:56;;;;;;;5.32;2.30;;;;;;;16.01;54.36;100696.75;5072461;28;20036;-53
2023/01/22 11:08:29;;;;;;;4.63;2.60;;;;;;;16.13;54.54;100692.28;5073463;28;20056;-53
2023/01/22 11:11:01;;;;;;;6.55;2.80;;;;;;;16.25;54.52;100696.72;5072989;28;20045;-51
2023/01/22 11:13:37;;;;;;;4.47;2.45;;;;;;;16.33;54.63;100690.75;5073094;28;20060;-56
2023/01/22 11:16:12;;;;;;;4.65;2.65;;;;;;;16.43;54.65;100699.84;5072939;28;20089;-55
2023/01/22 11:18:43;;;;;;;5.50;2.60;;;;;;;16.47;54.70;100693.22;5072882;28;20044;-54
2023/01/22 11:21:15;;;;;;;5.97;2.50;;;;;;;16.52;54.52;100697.28;5072892;28;20045;-52
2023/01/22 11:23:49;;;;;;;4.20;2.70;;;;;;;16.58;54.54;100707.56;5072683;28;20102;-54
2023/01/22 11:26:25;;;;;;;4.88;2.33;;;;;;;16.62;54.61;100704.66;5072731;28;20044;-51
2023/01/22 11:29:03;;;;;;;6.53;2.83;;;;;;;16.64;54.58;100695.47;5072523;28;20131;-52
2023/01/22 11:31:55;;;;;;;6.53;2.78;;;;;;;16.68;54.61;100710.44;5072604;28;20072;-51
2023/01/22 11:34:49;;;;;;;5.68;2.88;;;;;;;16.74;54.69;100722.56;5072471;28;20054;-52
2023/01/22 11:37:20;;;;;;;5.80;2.90;;;;;;;16.76;54.39;100726.00;5072461;28;20054;-52
2023/01/22 11:40:08;;;;;;;4.60;2.83;;;;;;;16.79;54.50;100717.66;5072436;28;20044;-53
2023/01/22 11:42:49;;;;;;;4.85;2.55;;;;;;;16.89;54.29;100710.59;5072414;28;20127;-53
2023/01/22 11:45:34;;;;;;;4.00;2.60;;;;;;;16.97;54.29;100705.44;5072315;28;20386;-53
2023/01/22 11:48:20;;;;;;;5.60;2.92;;;;;;;17.01;54.13;100698.84;5072323;28;20048;-53